sensor_id;sensor_type;location;lat;lon;timestamp;temperature;humidity
51175;DHT22;37240;50.104;20.010;2022-10-16T00:02:35;17.40;86.70
51175;DHT22;37240;50.104;20.010;2022-10-16T00:07:36;17.40;88.50
51175;DHT22;37240;50.104;20.010;2022-10-16T00:12:36;17.30;89.10
51175;DHT22;37240;50.104;20.010;2022-10-16T00:17:37;17.30;89.20
51175;DHT22;37240;50.104;20.010;2022-10-16T00:22:37;17.30;89.10
51175;DHT22;37240;50.104;20.010;2022-10-16T00:27:38;17.30;90.10
51175;DHT22;37240;50.104;20.010;2022-10-16T00:32:38;17.30;90.20
51175;DHT22;37240;50.104;20.010;2022-10-16T00:37:39;17.20;90.30
51175;DHT22;37240;50.104;20.010;2022-10-16T00:42:39;17.20;90.50
51175;DHT22;37240;50.104;20.010;2022-10-16T00:47:43;17.10;90.50
51175;DHT22;37240;50.104;20.010;2022-10-16T00:52:46;17.00;90.90
51175;DHT22;37240;50.104;20.010;2022-10-16T00:57:49;16.90;91.60
51175;DHT22;37240;50.104;20.010;2022-10-16T01:02:54;16.90;92.30
51175;DHT22;37240;50.104;20.010;2022-10-16T01:08:29;16.90;92.20
51175;DHT22;37240;50.104;20.010;2022-10-16T01:13:35;16.90;91.80
51175;DHT22;37240;50.104;20.010;2022-10-16T01:29:29;16.90;92.40
51175;DHT22;37240;50.104;20.010;2022-10-16T01:34:36;17.00;92.10
51175;DHT22;37240;50.104;20.010;2022-10-16T01:39:39;17.00;91.30
51175;DHT22;37240;50.104;20.010;2022-10-16T01:44:43;17.00;91.10
51175;DHT22;37240;50.104;20.010;2022-10-16T01:49:46;17.00;91.20
51175;DHT22;37240;50.104;20.010;2022-10-16T01:54:49;17.00;91.20
51175;DHT22;37240;50.104;20.010;2022-10-16T01:59:54;16.90;91.30
51175;DHT22;37240;50.104;20.010;2022-10-16T02:05:07;16.80;91.40
51175;DHT22;37240;50.104;20.010;2022-10-16T02:10:10;16.80;91.40
51175;DHT22;37240;50.104;20.010;2022-10-16T02:15:11;16.80;91.20
51175;DHT22;37240;50.104;20.010;2022-10-16T02:20:11;16.70;91.90
51175;DHT22;37240;50.104;20.010;2022-10-16T02:25:25;16.70;91.50
51175;DHT22;37240;50.104;20.010;2022-10-16T02:31:03;16.70;91.40
51175;DHT22;37240;50.104;20.010;2022-10-16T02:36:05;16.80;91.40
51175;DHT22;37240;50.104;20.010;2022-10-16T02:41:06;16.80;91.70
51175;DHT22;37240;50.104;20.010;2022-10-16T02:46:06;16.80;91.80
51175;DHT22;37240;50.104;20.010;2022-10-16T02:51:07;16.80;92.10
51175;DHT22;37240;50.104;20.010;2022-10-16T02:56:08;16.70;92.40
51175;DHT22;37240;50.104;20.010;2022-10-16T03:01:08;16.70;92.50
51175;DHT22;37240;50.104;20.010;2022-10-16T03:06:09;16.70;92.50
51175;DHT22;37240;50.104;20.010;2022-10-16T03:11:09;16.70;92.50
51175;DHT22;37240;50.104;20.010;2022-10-16T03:16:10;16.70;92.60
51175;DHT22;37240;50.104;20.010;2022-10-16T03:21:10;16.70;92.40
51175;DHT22;37240;50.104;20.010;2022-10-16T03:26:11;16.70;92.20
51175;DHT22;37240;50.104;20.010;2022-10-16T03:31:11;16.80;92.40
51175;DHT22;37240;50.104;20.010;2022-10-16T03:36:13;16.70;92.50
51175;DHT22;37240;50.104;20.010;2022-10-16T03:41:13;16.80;92.50
51175;DHT22;37240;50.104;20.010;2022-10-16T03:46:14;16.80;92.50
51175;DHT22;37240;50.104;20.010;2022-10-16T03:51:14;16.80;93.40
51175;DHT22;37240;50.104;20.010;2022-10-16T03:56:15;16.60;93.70
51175;DHT22;37240;50.104;20.010;2022-10-16T04:01:16;16.60;94.20
51175;DHT22;37240;50.104;20.010;2022-10-16T04:06:16;16.60;94.50
51175;DHT22;37240;50.104;20.010;2022-10-16T04:11:17;16.50;94.80
51175;DHT22;37240;50.104;20.010;2022-10-16T04:16:17;16.40;95.10
51175;DHT22;37240;50.104;20.010;2022-10-16T04:21:18;16.40;95.40
51175;DHT22;37240;50.104;20.010;2022-10-16T04:26:18;16.40;95.50
51175;DHT22;37240;50.104;20.010;2022-10-16T04:31:19;16.40;95.30
51175;DHT22;37240;50.104;20.010;2022-10-16T04:36:19;16.40;95.10
51175;DHT22;37240;50.104;20.010;2022-10-16T04:41:20;16.40;95.50
51175;DHT22;37240;50.104;20.010;2022-10-16T04:46:20;16.50;95.60
51175;DHT22;37240;50.104;20.010;2022-10-16T04:51:21;16.40;95.80
51175;DHT22;37240;50.104;20.010;2022-10-16T04:56:21;16.40;95.80
51175;DHT22;37240;50.104;20.010;2022-10-16T05:01:22;16.30;95.90
51175;DHT22;37240;50.104;20.010;2022-10-16T05:06:22;16.20;96.10
51175;DHT22;37240;50.104;20.010;2022-10-16T05:11:23;16.20;96.10
51175;DHT22;37240;50.104;20.010;2022-10-16T05:16:24;16.10;96.30
51175;DHT22;37240;50.104;20.010;2022-10-16T05:21:24;16.10;96.40
51175;DHT22;37240;50.104;20.010;2022-10-16T05:26:25;16.10;96.20
51175;DHT22;37240;50.104;20.010;2022-10-16T05:31:25;16.10;96.50
51175;DHT22;37240;50.104;20.010;2022-10-16T05:36:26;16.10;96.40
51175;DHT22;37240;50.104;20.010;2022-10-16T05:41:26;16.10;96.60
51175;DHT22;37240;50.104;20.010;2022-10-16T05:46:27;16.10;96.80
51175;DHT22;37240;50.104;20.010;2022-10-16T05:51:28;16.20;96.60
51175;DHT22;37240;50.104;20.010;2022-10-16T05:56:28;16.40;96.80
51175;DHT22;37240;50.104;20.010;2022-10-16T06:01:29;16.50;96.30
51175;DHT22;37240;50.104;20.010;2022-10-16T06:06:30;16.70;95.80
51175;DHT22;37240;50.104;20.010;2022-10-16T06:11:32;16.90;95.60
51175;DHT22;37240;50.104;20.010;2022-10-16T06:16:34;17.00;95.80
51175;DHT22;37240;50.104;20.010;2022-10-16T06:21:35;17.10;95.70
51175;DHT22;37240;50.104;20.010;2022-10-16T06:26:36;17.10;96.00
51175;DHT22;37240;50.104;20.010;2022-10-16T06:31:37;17.20;95.60
51175;DHT22;37240;50.104;20.010;2022-10-16T06:36:39;17.30;95.80
51175;DHT22;37240;50.104;20.010;2022-10-16T06:41:40;17.40;95.70
51175;DHT22;37240;50.104;20.010;2022-10-16T06:46:40;17.60;95.70
51175;DHT22;37240;50.104;20.010;2022-10-16T06:51:41;18.10;95.40
51175;DHT22;37240;50.104;20.010;2022-10-16T06:56:41;18.80;94.20
51175;DHT22;37240;50.104;20.010;2022-10-16T07:01:42;19.40;92.90
51175;DHT22;37240;50.104;20.010;2022-10-16T07:06:42;19.70;91.60
51175;DHT22;37240;50.104;20.010;2022-10-16T07:11:43;19.70;91.50
51175;DHT22;37240;50.104;20.010;2022-10-16T07:16:43;19.80;91.40
51175;DHT22;37240;50.104;20.010;2022-10-16T07:21:44;19.90;91.40
51175;DHT22;37240;50.104;20.010;2022-10-16T07:26:46;20.40;91.20
51175;DHT22;37240;50.104;20.010;2022-10-16T07:31:47;20.80;90.50
51175;DHT22;37240;50.104;20.010;2022-10-16T07:36:51;21.30;88.10
51175;DHT22;37240;50.104;20.010;2022-10-16T07:41:52;21.90;86.00
51175;DHT22;37240;50.104;20.010;2022-10-16T07:46:52;22.20;81.10
51175;DHT22;37240;50.104;20.010;2022-10-16T07:51:53;22.40;80.80
51175;DHT22;37240;50.104;20.010;2022-10-16T07:56:53;22.40;77.00
51175;DHT22;37240;50.104;20.010;2022-10-16T08:01:54;22.40;76.60
51175;DHT22;37240;50.104;20.010;2022-10-16T08:06:54;22.40;76.70
51175;DHT22;37240;50.104;20.010;2022-10-16T08:11:55;22.40;75.90
51175;DHT22;37240;50.104;20.010;2022-10-16T08:16:55;22.40;75.60
51175;DHT22;37240;50.104;20.010;2022-10-16T08:21:56;22.30;75.60
51175;DHT22;37240;50.104;20.010;2022-10-16T08:26:56;22.20;75.50
51175;DHT22;37240;50.104;20.010;2022-10-16T08:31:57;22.30;77.40
51175;DHT22;37240;50.104;20.010;2022-10-16T08:36:57;22.50;76.20
51175;DHT22;37240;50.104;20.010;2022-10-16T08:42:11;22.60;74.70
51175;DHT22;37240;50.104;20.010;2022-10-16T08:47:22;22.70;75.40
51175;DHT22;37240;50.104;20.010;2022-10-16T08:52:28;22.70;74.30
51175;DHT22;37240;50.104;20.010;2022-10-16T08:57:29;22.90;73.50
51175;DHT22;37240;50.104;20.010;2022-10-16T09:02:34;23.00;72.80
51175;DHT22;37240;50.104;20.010;2022-10-16T09:12:37;23.70;69.60
51175;DHT22;37240;50.104;20.010;2022-10-16T09:18:00;23.90;68.40
51175;DHT22;37240;50.104;20.010;2022-10-16T09:28:04;23.80;67.40
51175;DHT22;37240;50.104;20.010;2022-10-16T09:33:06;23.60;68.00
51175;DHT22;37240;50.104;20.010;2022-10-16T09:38:08;23.40;68.10
51175;DHT22;37240;50.104;20.010;2022-10-16T09:48:19;23.30;68.10
51175;DHT22;37240;50.104;20.010;2022-10-16T09:53:20;23.20;69.20
51175;DHT22;37240;50.104;20.010;2022-10-16T09:58:22;23.20;70.30
51175;DHT22;37240;50.104;20.010;2022-10-16T10:03:40;23.20;69.60
51175;DHT22;37240;50.104;20.010;2022-10-16T10:08:51;23.10;70.40
51175;DHT22;37240;50.104;20.010;2022-10-16T10:13:52;23.10;70.50
51175;DHT22;37240;50.104;20.010;2022-10-16T10:19:03;23.10;70.10
51175;DHT22;37240;50.104;20.010;2022-10-16T10:24:04;23.10;70.00
51175;DHT22;37240;50.104;20.010;2022-10-16T10:45:43;23.30;69.30
51175;DHT22;37240;50.104;20.010;2022-10-16T10:51:10;23.30;69.40
51175;DHT22;37240;50.104;20.010;2022-10-16T11:07:03;23.70;69.10
51175;DHT22;37240;50.104;20.010;2022-10-16T11:17:23;23.60;68.00
51175;DHT22;37240;50.104;20.010;2022-10-16T11:22:51;23.60;67.40
51175;DHT22;37240;50.104;20.010;2022-10-16T11:38:43;23.70;67.00
51175;DHT22;37240;50.104;20.010;2022-10-16T11:49:22;23.70;67.90
51175;DHT22;37240;50.104;20.010;2022-10-16T11:54:48;23.70;67.60
51175;DHT22;37240;50.104;20.010;2022-10-16T12:10:26;23.60;69.50
51175;DHT22;37240;50.104;20.010;2022-10-16T12:15:29;23.60;69.60
51175;DHT22;37240;50.104;20.010;2022-10-16T12:20:32;23.60;70.50
51175;DHT22;37240;50.104;20.010;2022-10-16T12:25:38;23.60;70.30
51175;DHT22;37240;50.104;20.010;2022-10-16T12:30:41;23.60;70.30
51175;DHT22;37240;50.104;20.010;2022-10-16T12:35:45;23.60;69.90
51175;DHT22;37240;50.104;20.010;2022-10-16T12:40:58;23.60;70.00
51175;DHT22;37240;50.104;20.010;2022-10-16T13:01:43;23.80;69.50
51175;DHT22;37240;50.104;20.010;2022-10-16T13:06:51;23.70;67.00
51175;DHT22;37240;50.104;20.010;2022-10-16T13:22:24;23.70;67.50
51175;DHT22;37240;50.104;20.010;2022-10-16T13:27:41;23.70;67.60
51175;DHT22;37240;50.104;20.010;2022-10-16T13:32:50;23.70;68.30
51175;DHT22;37240;50.104;20.010;2022-10-16T13:37:51;23.60;68.30
51175;DHT22;37240;50.104;20.010;2022-10-16T13:42:53;23.50;68.40
51175;DHT22;37240;50.104;20.010;2022-10-16T13:48:04;23.50;69.00
51175;DHT22;37240;50.104;20.010;2022-10-16T13:53:14;23.40;68.80
51175;DHT22;37240;50.104;20.010;2022-10-16T13:58:15;23.40;69.30
51175;DHT22;37240;50.104;20.010;2022-10-16T14:03:15;23.30;69.30
51175;DHT22;37240;50.104;20.010;2022-10-16T14:08:16;23.30;69.80
51175;DHT22;37240;50.104;20.010;2022-10-16T14:13:20;23.30;70.40
51175;DHT22;37240;50.104;20.010;2022-10-16T14:18:24;23.20;70.80
51175;DHT22;37240;50.104;20.010;2022-10-16T14:23:35;23.10;71.40
51175;DHT22;37240;50.104;20.010;2022-10-16T14:28:37;23.10;71.80
51175;DHT22;37240;50.104;20.010;2022-10-16T14:33:38;23.10;72.40
51175;DHT22;37240;50.104;20.010;2022-10-16T14:38:39;23.10;72.50
51175;DHT22;37240;50.104;20.010;2022-10-16T14:43:42;22.90;72.50
51175;DHT22;37240;50.104;20.010;2022-10-16T14:48:46;22.90;72.90
51175;DHT22;37240;50.104;20.010;2022-10-16T14:53:49;22.80;73.10
51175;DHT22;37240;50.104;20.010;2022-10-16T14:58:51;22.80;73.70
51175;DHT22;37240;50.104;20.010;2022-10-16T15:03:53;22.70;74.00
51175;DHT22;37240;50.104;20.010;2022-10-16T15:08:53;22.60;74.60
51175;DHT22;37240;50.104;20.010;2022-10-16T15:13:54;22.50;74.80
51175;DHT22;37240;50.104;20.010;2022-10-16T15:18:54;22.50;75.50
51175;DHT22;37240;50.104;20.010;2022-10-16T15:23:55;22.50;75.70
51175;DHT22;37240;50.104;20.010;2022-10-16T15:28:56;22.40;75.50
51175;DHT22;37240;50.104;20.010;2022-10-16T15:33:57;22.40;76.10
51175;DHT22;37240;50.104;20.010;2022-10-16T15:38:57;22.30;76.50
51175;DHT22;37240;50.104;20.010;2022-10-16T15:43:58;22.20;76.80
51175;DHT22;37240;50.104;20.010;2022-10-16T15:48:58;22.10;77.00
51175;DHT22;37240;50.104;20.010;2022-10-16T15:54:00;22.00;77.40
51175;DHT22;37240;50.104;20.010;2022-10-16T15:59:00;21.90;77.40
51175;DHT22;37240;50.104;20.010;2022-10-16T16:04:01;21.80;77.60
51175;DHT22;37240;50.104;20.010;2022-10-16T16:09:01;21.80;78.20
51175;DHT22;37240;50.104;20.010;2022-10-16T16:14:02;21.70;78.50
51175;DHT22;37240;50.104;20.010;2022-10-16T16:19:04;21.60;79.10
51175;DHT22;37240;50.104;20.010;2022-10-16T16:24:04;21.60;79.40
51175;DHT22;37240;50.104;20.010;2022-10-16T16:29:05;21.50;79.50
51175;DHT22;37240;50.104;20.010;2022-10-16T16:34:06;21.40;79.80
51175;DHT22;37240;50.104;20.010;2022-10-16T16:39:07;21.30;80.60
51175;DHT22;37240;50.104;20.010;2022-10-16T16:44:10;21.30;81.00
51175;DHT22;37240;50.104;20.010;2022-10-16T16:49:12;21.20;81.50
51175;DHT22;37240;50.104;20.010;2022-10-16T16:54:12;21.10;81.90
51175;DHT22;37240;50.104;20.010;2022-10-16T16:59:15;21.10;81.80
51175;DHT22;37240;50.104;20.010;2022-10-16T17:04:16;21.00;81.60
51175;DHT22;37240;50.104;20.010;2022-10-16T17:09:16;20.90;82.10
51175;DHT22;37240;50.104;20.010;2022-10-16T17:14:17;20.90;82.40
51175;DHT22;37240;50.104;20.010;2022-10-16T17:19:18;20.80;82.90
51175;DHT22;37240;50.104;20.010;2022-10-16T17:24:19;20.80;83.10
51175;DHT22;37240;50.104;20.010;2022-10-16T17:29:20;20.70;83.80
51175;DHT22;37240;50.104;20.010;2022-10-16T17:34:20;20.60;83.70
51175;DHT22;37240;50.104;20.010;2022-10-16T17:39:21;20.50;83.80
51175;DHT22;37240;50.104;20.010;2022-10-16T17:44:21;20.50;83.20
51175;DHT22;37240;50.104;20.010;2022-10-16T17:49:22;20.50;82.60
51175;DHT22;37240;50.104;20.010;2022-10-16T17:54:22;20.40;82.60
51175;DHT22;37240;50.104;20.010;2022-10-16T17:59:23;20.30;82.50
51175;DHT22;37240;50.104;20.010;2022-10-16T18:04:23;20.30;82.50
51175;DHT22;37240;50.104;20.010;2022-10-16T18:09:24;20.20;82.60
51175;DHT22;37240;50.104;20.010;2022-10-16T18:14:27;20.10;82.90
51175;DHT22;37240;50.104;20.010;2022-10-16T18:19:27;20.00;83.10
51175;DHT22;37240;50.104;20.010;2022-10-16T18:24:28;20.00;83.40
51175;DHT22;37240;50.104;20.010;2022-10-16T18:29:29;19.90;83.60
51175;DHT22;37240;50.104;20.010;2022-10-16T18:34:29;19.90;84.00
51175;DHT22;37240;50.104;20.010;2022-10-16T18:39:30;19.80;83.90
51175;DHT22;37240;50.104;20.010;2022-10-16T18:44:30;19.80;84.00
51175;DHT22;37240;50.104;20.010;2022-10-16T18:49:31;19.70;84.10
51175;DHT22;37240;50.104;20.010;2022-10-16T18:54:31;19.70;84.40
51175;DHT22;37240;50.104;20.010;2022-10-16T18:59:32;19.60;84.50
51175;DHT22;37240;50.104;20.010;2022-10-16T19:04:32;19.60;85.00
51175;DHT22;37240;50.104;20.010;2022-10-16T19:09:33;19.50;85.50
51175;DHT22;37240;50.104;20.010;2022-10-16T19:14:33;19.40;85.90
51175;DHT22;37240;50.104;20.010;2022-10-16T19:19:34;19.40;86.40
51175;DHT22;37240;50.104;20.010;2022-10-16T19:24:34;19.30;87.30
51175;DHT22;37240;50.104;20.010;2022-10-16T19:29:35;19.20;87.90
51175;DHT22;37240;50.104;20.010;2022-10-16T19:34:36;19.20;88.30
51175;DHT22;37240;50.104;20.010;2022-10-16T19:39:37;19.10;88.80
51175;DHT22;37240;50.104;20.010;2022-10-16T19:44:37;19.00;89.90
51175;DHT22;37240;50.104;20.010;2022-10-16T19:49:38;19.00;90.10
51175;DHT22;37240;50.104;20.010;2022-10-16T19:54:38;18.90;90.30
51175;DHT22;37240;50.104;20.010;2022-10-16T19:59:39;18.90;90.60
51175;DHT22;37240;50.104;20.010;2022-10-16T20:04:39;18.80;90.90
51175;DHT22;37240;50.104;20.010;2022-10-16T20:09:40;18.70;91.20
51175;DHT22;37240;50.104;20.010;2022-10-16T20:14:40;18.70;91.30
51175;DHT22;37240;50.104;20.010;2022-10-16T20:19:41;18.50;91.50
51175;DHT22;37240;50.104;20.010;2022-10-16T20:24:42;18.40;91.80
51175;DHT22;37240;50.104;20.010;2022-10-16T20:29:42;18.30;92.20
51175;DHT22;37240;50.104;20.010;2022-10-16T20:34:43;18.30;92.50
51175;DHT22;37240;50.104;20.010;2022-10-16T20:39:43;18.20;92.70
51175;DHT22;37240;50.104;20.010;2022-10-16T20:44:44;18.20;93.10
51175;DHT22;37240;50.104;20.010;2022-10-16T20:49:44;18.20;93.20
51175;DHT22;37240;50.104;20.010;2022-10-16T20:54:45;18.10;93.40
51175;DHT22;37240;50.104;20.010;2022-10-16T20:59:47;18.00;93.50
51175;DHT22;37240;50.104;20.010;2022-10-16T21:04:48;17.90;93.80
51175;DHT22;37240;50.104;20.010;2022-10-16T21:09:48;17.90;94.00
51175;DHT22;37240;50.104;20.010;2022-10-16T21:14:49;17.70;93.80
51175;DHT22;37240;50.104;20.010;2022-10-16T21:19:49;17.50;94.80
51175;DHT22;37240;50.104;20.010;2022-10-16T21:24:50;17.50;95.20
51175;DHT22;37240;50.104;20.010;2022-10-16T21:29:52;17.30;95.40
51175;DHT22;37240;50.104;20.010;2022-10-16T21:34:52;17.20;95.60
51175;DHT22;37240;50.104;20.010;2022-10-16T21:39:56;17.00;95.70
51175;DHT22;37240;50.104;20.010;2022-10-16T21:44:56;16.90;95.90
51175;DHT22;37240;50.104;20.010;2022-10-16T21:49:57;16.90;96.60
51175;DHT22;37240;50.104;20.010;2022-10-16T21:54:57;16.80;96.50
51175;DHT22;37240;50.104;20.010;2022-10-16T21:59:58;16.70;96.40
51175;DHT22;37240;50.104;20.010;2022-10-16T22:04:58;16.60;97.00
51175;DHT22;37240;50.104;20.010;2022-10-16T22:09:59;16.50;98.00
51175;DHT22;37240;50.104;20.010;2022-10-16T22:14:59;16.50;98.30
51175;DHT22;37240;50.104;20.010;2022-10-16T22:20:00;16.50;98.20
51175;DHT22;37240;50.104;20.010;2022-10-16T22:25:01;16.50;98.50
51175;DHT22;37240;50.104;20.010;2022-10-16T22:30:01;16.50;99.30
51175;DHT22;37240;50.104;20.010;2022-10-16T22:35:02;16.50;99.20
51175;DHT22;37240;50.104;20.010;2022-10-16T22:40:02;16.50;99.20
51175;DHT22;37240;50.104;20.010;2022-10-16T22:45:03;16.50;99.40
51175;DHT22;37240;50.104;20.010;2022-10-16T22:50:04;16.50;99.60
51175;DHT22;37240;50.104;20.010;2022-10-16T22:55:05;16.50;99.70
51175;DHT22;37240;50.104;20.010;2022-10-16T23:00:08;16.50;99.50
51175;DHT22;37240;50.104;20.010;2022-10-16T23:05:09;16.40;99.60
51175;DHT22;37240;50.104;20.010;2022-10-16T23:10:10;16.40;99.70
51175;DHT22;37240;50.104;20.010;2022-10-16T23:15:10;16.40;99.90
51175;DHT22;37240;50.104;20.010;2022-10-16T23:20:11;16.30;99.20
51175;DHT22;37240;50.104;20.010;2022-10-16T23:25:12;16.20;99.50
51175;DHT22;37240;50.104;20.010;2022-10-16T23:30:12;16.10;98.60
51175;DHT22;37240;50.104;20.010;2022-10-16T23:35:13;15.90;98.60
51175;DHT22;37240;50.104;20.010;2022-10-16T23:40:14;15.80;99.30
51175;DHT22;37240;50.104;20.010;2022-10-16T23:45:14;15.70;99.70
51175;DHT22;37240;50.104;20.010;2022-10-16T23:50:15;15.70;99.90
51175;DHT22;37240;50.104;20.010;2022-10-16T23:55:15;15.70;99.90
